Station: Renmark Airport  

  Atmospheric Gas Attenuation - ITU Rec 676-11   ----------------- dB/100km -----------------
Date Time Temp RH % AH g/m3 Dew Point Wind Direction Speed kph Gust kph Barometer mB Rainfall Since 9am 24GHz 47GHz 76GHz 122GHz 134GHz 241GHz
05/05 09:40 15.1 77 9.93 11.1 9 11 1023.3 0 22.3 28.1 45.0 118.2 115.4 397.9
05/05 09:30 14.9 81 10.32 11.7 11 15 1023.4 0 23.2 28.8 46.8 122.9 121.1 417.8
05/05 09:20 14.5 80 9.95 11.1 9 13 1023.4 0 22.4 28.3 45.4 119.4 116.6 402.0
05/05 09:10 13.9 82 9.83 10.9 13 15 1023.3 0 22.2 28.3 45.3 118.9 115.8 399.3
05/05 09:00 13.5 86 10.06 11.2 13 15 1023.2 0 22.7 28.8 46.5 122.1 119.6 412.6
05/05 08:50 13.2 88 10.1 11.3 15 17 1023.3 0 22.8 29.0 46.8 123.1 120.7 416.2
05/05 08:40 12.8 89 9.97 11 13 15 1023.3 0 22.6 28.9 46.5 122.2 119.4 411.9
05/05 08:30 12.6 92 10.18 11.3 9 13 1023.2 0 23.0 29.3 47.5 125.0 122.7 423.4
05/05 08:20 12 94 10.02 11.1 7 11 1023.1 0 22.7 29.2 47.2 124.1 121.4 418.6
05/05 08:10 11.5 95 9.81 10.7 7 9 1023 0 22.3 29.0 46.6 122.4 119.2 410.7
05/05 08:00 11.1 96 9.67 10.5 9 11 1022.9 0 22.0 28.9 46.2 121.4 117.8 405.8
05/05 07:50 10.7 97 9.53 10.2 7 9 1022.7 0 21.7 28.8 45.8 120.4 116.4 400.8
05/05 07:40 10.3 97 9.29 9.8 7 9 1022.5 0 21.2 28.5 45.0 118.2 113.5 390.8
05/05 07:30 9.7 97 8.94 9.2 7 9 1022.4 0 20.5 28.1 43.8 115.0 109.4 376.2
05/05 07:20 9 97 8.55 8.5 7 9 1022.2 0 19.7 27.6 42.5 111.5 104.8 360.1
05/05 07:10 8.9 97 8.5 8.5 9 11 1022.1 0 19.6 27.5 42.3 111.0 104.2 358.1
05/05 07:00 8.2 97 8.13 7.8 9 13 1022 0 18.8 27.1 41.1 107.8 99.9 342.9
05/05 06:50 7.7 97 7.87 7.3 9 9 1021.9 0 18.3 26.8 40.3 105.5 96.9 332.2
05/05 06:40 7.9 97 7.97 7.5 9 11 1021.7 0 18.5 26.9 40.6 106.3 98.0 336.2
05/05 06:30 7.9 97 7.97 7.5 7 7 1021.5 0 18.5 26.9 40.6 106.3 98.0 336.2
05/05 06:20 7.8 97 7.92 7.4 6 7 1021.4 0 18.4 26.9 40.4 105.9 97.4 334.1
05/05 06:10 8.4 97 8.23 8 9 9 1021.3 0 19.0 27.2 41.4 108.6 101.0 346.8
05/05 06:00 8 97 8.02 7.6 7 9 1021.2 0 18.6 27.0 40.7 106.7 98.6 338.1
05/05 05:50 7.8 97 7.92 7.4 7 7 1021.2 0 18.4 26.9 40.4 105.8 97.4 334.1
05/05 05:40 7.8 97 7.92 7.4 7 7 1021.1 0 18.4 26.8 40.4 105.8 97.4 334.1
05/05 05:30 7.4 96 7.64 6.8 9 9 1021.1 0 17.8 26.5 39.4 103.2 94.0 322.0
05/05 05:20 7.2 95 7.46 6.5 9 9 1021 0 17.4 26.2 38.7 101.4 91.7 314.0
05/05 05:10 7.7 96 7.79 7.1 9 9 1021 0 18.1 26.7 39.9 104.5 95.7 328.1
05/05 05:00 7.5 96 7.69 6.9 7 7 1020.9 0 17.9 26.5 39.5 103.6 94.5 324.0
05/05 04:50 7.5 96 7.69 6.9 7 7 1020.8 0 17.9 26.5 39.5 103.6 94.5 323.9
05/05 04:40 7.8 96 7.84 7.2 7 9 1020.7 0 18.2 26.7 40.0 104.9 96.2 330.0
05/05 04:30 8.1 96 7.99 7.5 7 7 1020.6 0 18.5 26.9 40.5 106.2 98.0 336.1
05/05 04:20 8.2 96 8.04 7.6 6 7 1020.6 0 18.6 26.9 40.7 106.6 98.5 338.1
05/05 04:10 8.3 95 8.01 7.5 7 7 1020.5 0 18.6 26.8 40.5 106.1 98.0 336.2
05/05 04:00 8.4 95 8.06 7.6 9 11 1020.4 0 18.7 26.9 40.6 106.5 98.5 338.1
05/05 03:50 8.7 95 8.22 7.9 9 11 1020.4 0 19.0 27.1 41.2 107.9 100.4 344.7
05/05 03:40 8.6 95 8.17 7.8 7 7 1020.3 0 18.9 27.0 41.0 107.5 99.8 342.6
05/05 03:30 8.7 95 8.22 7.9 7 9 1020.4 0 19.0 27.1 41.2 107.9 100.4 344.7
05/05 03:20 8.7 94 8.13 7.8 9 9 1020.3 0 18.8 26.9 40.8 106.9 99.1 340.2
05/05 03:10 9.1 94 8.34 8.2 11 11 1020.3 0 19.3 27.1 41.5 108.7 101.5 348.8
05/05 03:00 9.2 94 8.4 8.3 11 13 1020.3 0 19.4 27.2 41.7 109.3 102.3 351.3
05/05 02:50 9.2 94 8.4 8.3 11 11 1020.4 0 19.4 27.2 41.7 109.3 102.3 351.3
05/05 02:40 9.1 94 8.34 8.2 11 13 1020.4 0 19.3 27.1 41.5 108.7 101.5 348.8
05/05 02:30 9 94 8.29 8.1 9 11 1020.4 0 19.1 27.1 41.3 108.3 101.0 346.8
05/05 02:20 8.7 93 8.05 7.6 9 9 1020.5 0 18.6 26.8 40.4 106.0 98.0 336.4
05/05 02:10 9 93 8.2 7.9 7 9 1020.5 0 19.0 26.9 40.9 107.3 99.7 342.4
05/05 02:00 9 94 8.29 8.1 9 11 1020.5 0 19.1 27.1 41.3 108.3 101.0 346.8
05/05 01:50 8.8 93 8.1 7.7 7 9 1020.4 0 18.7 26.8 40.6 106.4 98.6 338.4
05/05 01:40 9 93 8.2 7.9 9 9 1020.4 0 19.0 26.9 40.9 107.3 99.7 342.4
05/05 01:30 9.2 93 8.31 8.1 9 11 1020.5 0 19.2 27.1 41.3 108.3 101.0 346.9
05/05 01:20 9.3 92 8.27 8.1 9 9 1020.5 0 19.1 27.0 41.1 107.7 100.3 344.5
05/05 01:10 9.4 90 8.14 7.8 9 9 1020.5 0 18.8 26.7 40.5 106.1 98.4 337.7
05/05 01:00 9.7 91 8.39 8.3 7 9 1020.5 0 19.3 27.0 41.4 108.5 101.5 348.6
05/05 00:50 10 90 8.46 8.4 7 7 1020.4 0 19.5 27.1 41.5 108.8 102.0 350.6
05/05 00:40 10.2 92 8.76 9 6 7 1020.4 0 20.1 27.5 42.7 112.0 106.0 364.4
05/05 00:30 9.9 91 8.5 8.5 9 9 1020.2 0 19.6 27.2 41.7 109.4 102.7 352.9
05/05 00:20 10.2 91 8.66 8.8 7 9 1020.1 0 19.9 27.3 42.2 110.8 104.5 359.4
05/05 00:10 10.2 90 8.57 8.6 7 9 1020.1 0 19.7 27.2 41.8 109.8 103.3 355.0
05/05 00:00 10.7 91 8.94 9.3 7 9 1020.1 0 20.5 27.7 43.1 113.3 107.8 370.7
04/05 23:50 10.8 90 8.9 9.2 9 11 1020.1 0 20.4 27.6 42.9 112.7 107.1 368.3
04/05 23:40 10.6 89 8.69 8.9 9 9 1020.1 0 19.9 27.3 42.1 110.6 104.4 359.0
04/05 23:30 10.8 89 8.8 9.1 7 9 1020 0 20.2 27.4 42.5 111.5 105.6 363.4
04/05 23:20 10.6 89 8.69 8.9 7 9 1019.9 0 19.9 27.3 42.1 110.5 104.4 358.9
04/05 23:10 10.6 88 8.59 8.7 7 7 1019.9 0 19.7 27.1 41.7 109.4 103.0 354.1
04/05 23:00 10.6 88 8.59 8.7 7 11 1019.9 0 19.7 27.1 41.7 109.4 103.0 354.1
04/05 22:50 10.6 88 8.59 8.7 7 9 1019.9 0 19.7 27.1 41.7 109.4 103.0 354.1
04/05 22:40 10.7 89 8.74 9 9 9 1019.9 0 20.0 27.3 42.3 111.0 104.9 360.9
04/05 22:30 10.7 89 8.74 9 11 11 1019.9 0 20.0 27.3 42.3 111.0 104.9 360.9
04/05 22:20 10.5 89 8.63 8.8 9 11 1019.9 0 19.8 27.2 41.9 110.0 103.7 356.5
04/05 22:10 10.6 86 8.4 8.4 9 9 1019.9 0 19.3 26.8 40.9 107.3 100.4 344.9
04/05 22:00 11 85 8.51 8.6 7 9 1020 0 19.5 26.8 41.2 108.0 101.4 348.4
04/05 21:50 11.6 84 8.73 9 6 7 1019.8 0 20.0 27.0 41.8 109.6 103.6 356.2
04/05 21:40 11.8 83 8.74 9 7 7 1019.9 0 20.0 27.0 41.7 109.4 103.5 355.8
04/05 21:30 11.8 83 8.74 9 6 9 1019.8 0 20.0 27.0 41.7 109.4 103.4 355.8
04/05 21:20 12 83 8.85 9.2 9 9 1019.6 0 20.2 27.1 42.0 110.3 104.7 360.1
04/05 21:10 12.2 82 8.85 9.2 9 11 1019.5 0 20.2 27.0 41.9 110.0 104.4 359.1
04/05 21:00 12.7 81 9.02 9.5 7 11 1019.4 0 20.5 27.1 42.4 111.2 106.0 364.9
04/05 20:50 12.6 80 8.85 9.2 9 11 1019.2 0 20.2 26.9 41.7 109.4 103.8 357.2
04/05 20:40 13.2 78 8.96 9.5 9 9 1019.1 0 20.4 26.9 41.8 109.8 104.5 359.7
04/05 20:30 13.5 77 9.01 9.6 9 11 1019 0 20.5 26.9 41.9 109.9 104.8 360.6
04/05 20:20 13.3 77 8.9 9.4 9 11 1018.8 0 20.2 26.7 41.5 109.0 103.5 356.3
04/05 20:10 13.2 75 8.61 8.9 9 9 1018.7 0 19.6 26.3 40.4 105.9 99.7 343.1
04/05 20:00 14.3 72 8.85 9.3 9 13 1018.6 0 20.1 26.4 40.8 107.0 101.5 349.4
04/05 19:50 14.5 72 8.96 9.5 11 13 1018.4 0 20.3 26.5 41.1 107.9 102.7 353.6
04/05 19:40 14.3 69 8.48 8.7 9 11 1018.3 0 19.3 25.7 39.3 103.0 96.6 332.2
04/05 19:30 14.5 68 8.46 8.7 9 11 1018.1 0 19.3 25.6 39.1 102.5 96.1 330.4
04/05 19:20 14.5 69 8.58 8.9 11 11 1018 0 19.5 25.8 39.6 103.8 97.6 335.9
04/05 19:10 14.2 70 8.55 8.8 11 11 1017.8 0 19.5 25.9 39.6 103.9 97.6 335.7
04/05 19:00 14.1 76 9.22 9.9 9 11 1017.7 0 20.9 27.0 42.4 111.2 106.7 367.4
04/05 18:50 14.3 75 9.21 9.9 9 9 1017.5 0 20.9 26.9 42.2 110.8 106.2 365.9
04/05 18:40 14.6 74 9.26 10 9 9 1017.3 0 21.0 26.9 42.2 110.9 106.5 366.8
04/05 18:30 15 72 9.23 10 9 11 1017 0 20.9 26.7 41.9 110.0 105.5 363.4
04/05 18:20 15.6 69 9.18 9.9 11 11 1016.7 0 20.7 26.4 41.4 108.6 104.0 358.3
04/05 18:10 16.1 67 9.18 10 9 9 1016.5 0 20.7 26.3 41.1 107.9 103.3 356.0
04/05 18:00 16.6 65 9.18 10 11 15 1016.5 0 20.7 26.1 40.8 107.2 102.7 353.7
04/05 17:50 17 63 9.12 9.9 13 15 1016 0 20.5 25.9 40.4 106.0 101.3 349.1
04/05 17:40 17.5 61 9.09 9.9 15 17 1015.8 0 20.4 25.7 40.0 105.0 100.3 345.5
04/05 17:30 17.8 60 9.11 9.9 15 20 1015.7 0 20.5 25.6 39.9 104.8 100.1 345.0
04/05 17:20 18 59 9.06 9.9 17 19 1015.5 0 20.4 25.5 39.6 104.0 99.2 341.9
04/05 17:10 18.3 57 8.91 9.6 15 19 1015.3 0 20.0 25.2 38.9 102.0 96.9 333.9

Last Refresh: 05-May-2026 09:55:44

Bureau of Meteorology